Time;durP1;ratioP1;P1;durP2;ratioP2;P2;SDS_P1;SDS_P2;PMS_P1;PMS_P2;Temp;Humidity;BMP_temperature;BMP_pressure;BME280_temperature;BME280_humidity;BME280_pressure;Samples;Min_cycle;Max_cycle;Signal;HPM_P1;HPM_P2
2022/03/01 00:02:16;;;;;;;;;;;;;;;;;;5056344;28;19974;-32
2022/03/01 00:04:42;;;;;;;;;;;;;;;;;;5058106;28;19978;-32
2022/03/01 00:07:08;;;;;;;;;;;;;;;;;;5056557;28;19913;-31
2022/03/01 00:09:34;;;;;;;;;;;;;;;;;;5057406;28;19912;-32
2022/03/01 00:12:00;;;;;;;;;;;;;;;;;;5057315;28;19909;-32
2022/03/01 00:14:26;;;;;;;;;;;;;;;;;;5057360;28;19974;-32
2022/03/01 00:16:54;;;;;;;;;;;;;;;;;;5057585;28;19913;-32
2022/03/01 00:19:20;;;;;;;;;;;;;;;;;;5057335;28;19956;-31
2022/03/01 00:21:46;;;;;;;;;;;;;;;;;;5057406;28;19913;-32
2022/03/01 00:24:12;;;;;;;;;;;;;;;;;;5057142;28;20344;-31
2022/03/01 00:26:38;;;;;;;;;;;;;;;;;;5057401;28;19920;-31
2022/03/01 00:29:04;;;;;;;;;;;;;;;;;;5057063;28;19997;-32
2022/03/01 00:31:30;;;;;;;;;;;;;;;;;;5057084;28;19913;-31
2022/03/01 00:33:56;;;;;;;;;;;;;;;;;;5057012;28;19913;-32
2022/03/01 00:36:22;;;;;;;;;;;;;;;;;;5056977;28;19916;-31
2022/03/01 00:38:48;;;;;;;;;;;;;;;;;;5056894;28;19913;-31
2022/03/01 00:41:14;;;;;;;;;;;;;;;;;;5056845;28;20358;-31
2022/03/01 00:43:40;;;;;;;;;;;;;;;;;;5055753;28;20000;-31
2022/03/01 00:46:06;;;;;;;;;;;;;;;;;;5056754;28;19948;-31
2022/03/01 00:48:32;;;;;;;;;;;;;;;;;;5057361;28;19909;-31
2022/03/01 00:50:58;;;;;;;;;;;;;;;;;;5056680;28;19999;-31
2022/03/01 00:53:24;;;;;;;;;;;;;;;;;;5056674;28;20311;-32
2022/03/01 00:55:50;;;;;;;;;;;;;;;;;;5055607;28;19913;-32
2022/03/01 00:58:16;;;;;;;;;;;;;;;;;;5055598;28;19986;-31
2022/03/01 01:00:42;;;;;;;;;;;;;;;;;;5056530;28;19912;-31
2022/03/01 01:03:08;;;;;;;;;;;;;;;;;;5056345;28;19975;-31
2022/03/01 01:05:34;;;;;;;;;;;;;;;;;;5056399;28;19909;-32
2022/03/01 01:08:01;;;;;;;;;;;;;;;;;;5055398;28;20348;-32
2022/03/01 01:10:27;;;;;;;;;;;;;;;;;;5055395;28;19908;-31
2022/03/01 01:12:53;;;;;;;;;;;;;;;;;;5056766;28;19928;-32
2022/03/01 01:15:20;;;;;;;;;;;;;;;;;;5056200;28;19909;-32
2022/03/01 01:17:46;;;;;;;;;;;;;;;;;;5056251;28;19909;-32
2022/03/01 01:20:12;;;;;;;;;;;;;;;;;;5056033;28;19919;-32
2022/03/01 01:22:41;;;;;;;;;;;;;;;;;;5055902;28;19912;-32
2022/03/01 01:25:07;;;;;;;;;;;;;;;;;;5056020;28;19935;-32
2022/03/01 01:27:33;;;;;;;;;;;;;;;;;;5056009;28;19912;-31
2022/03/01 01:29:59;;;;;;;;;;;;;;;;;;5056175;28;19909;-32
2022/03/01 01:32:25;;;;;;;;;;;;;;;;;;5054858;28;19920;-31
2022/03/01 01:34:52;;;;;;;;;;;;;;;;;;5054922;28;19923;-31
2022/03/01 01:37:18;;;;;;;;;;;;;;;;;;5056391;28;19974;-32
2022/03/01 01:39:44;;;;;;;;;;;;;;;;;;5055748;28;20452;-31
2022/03/01 01:42:10;;;;;;;;;;;;;;;;;;5054579;28;19913;-32
2022/03/01 01:44:36;;;;;;;;;;;;;;;;;;5055684;28;20271;-33
2022/03/01 01:47:02;;;;;;;;;;;;;;;;;;5055637;28;19909;-32
2022/03/01 01:49:28;;;;;;;;;;;;;;;;;;5055549;28;19944;-32
2022/03/01 01:51:54;;;;;;;;;;;;;;;;;;5055729;28;20009;-32
2022/03/01 01:54:20;;;;;;;;;;;;;;;;;;5055493;28;20395;-32
2022/03/01 01:56:46;;;;;;;;;;;;;;;;;;5055983;28;19913;-32
2022/03/01 01:59:12;;;;;;;;;;;;;;;;;;5056015;28;20243;-32
2022/03/01 02:01:38;;;;;;;;;;;;;;;;;;5055329;28;19967;-32
2022/03/01 02:04:04;;;;;;;;;;;;;;;;;;5055082;28;19920;-33
2022/03/01 02:06:30;;;;;;;;;;;;;;;;;;5055351;28;20312;-31
2022/03/01 02:08:56;;;;;;;;;;;;;;;;;;5055233;28;19936;-31
2022/03/01 02:11:22;;;;;;;;;;;;;;;;;;5054338;28;20344;-31
2022/03/01 02:13:48;;;;;;;;;;;;;;;;;;5055258;28;19913;-30
2022/03/01 02:16:14;;;;;;;;;;;;;;;;;;5055151;28;19913;-31
2022/03/01 02:18:40;;;;;;;;;;;;;;;;;;5054248;28;20367;-31
2022/03/01 02:21:06;;;;;;;;;;;;;;;;;;5055130;28;20387;-31
2022/03/01 02:23:32;;;;;;;;;;;;;;;;;;5053715;28;20005;-32
2022/03/01 02:25:58;;;;;;;;;;;;;;;;;;5053883;28;19913;-31
2022/03/01 02:28:24;;;;;;;;;;;;;;;;;;5054135;28;19982;-31
2022/03/01 02:30:50;;;;;;;;;;;;;;;;;;5055293;28;19912;-31
2022/03/01 02:33:16;;;;;;;;;;;;;;;;;;5054017;28;20331;-32
2022/03/01 02:35:42;;;;;;;;;;;;;;;;;;5055286;28;20262;-31
2022/03/01 02:38:08;;;;;;;;;;;;;;;;;;5055317;28;19909;-31
2022/03/01 02:40:34;;;;;;;;;;;;;;;;;;5054944;28;19913;-32
2022/03/01 02:43:00;;;;;;;;;;;;;;;;;;5054786;28;20236;-31
2022/03/01 02:45:26;;;;;;;;;;;;;;;;;;5055463;28;19913;-32
2022/03/01 02:47:52;;;;;;;;;;;;;;;;;;5054920;28;19913;-32
2022/03/01 02:50:18;;;;;;;;;;;;;;;;;;5055152;28;19955;-32
2022/03/01 02:52:45;;;;;;;;;;;;;;;;;;5053835;28;19920;-31
2022/03/01 02:55:11;;;;;;;;;;;;;;;;;;5054800;28;19912;-32
2022/03/01 02:57:37;;;;;;;;;;;;;;;;;;5054842;28;19914;-32
2022/03/01 03:00:03;;;;;;;;;;;;;;;;;;5053882;28;19913;-31
2022/03/01 03:02:29;;;;;;;;;;;;;;;;;;5053438;28;19921;-31
2022/03/01 03:04:55;;;;;;;;;;;;;;;;;;5054726;28;20269;-32
2022/03/01 03:07:21;;;;;;;;;;;;;;;;;;5054691;28;19912;-32
2022/03/01 03:09:47;;;;;;;;;;;;;;;;;;5055218;28;19908;-31
2022/03/01 03:12:12;;;;;;;;;;;;;;;;;;5054564;28;19979;-31
2022/03/01 03:14:39;;;;;;;;;;;;;;;;;;5054582;28;20264;-30
2022/03/01 03:17:05;;;;;;;;;;;;;;;;;;5054563;28;19970;-30
2022/03/01 03:19:32;;;;;;;;;;;;;;;;;;5055168;28;20316;-30
2022/03/01 03:21:58;;;;;;;;;;;;;;;;;;5054451;28;19912;-30
2022/03/01 03:24:24;;;;;;;;;;;;;;;;;;5054565;28;19928;-31
2022/03/01 03:26:50;;;;;;;;;;;;;;;;;;5054507;28;19920;-32
2022/03/01 03:29:18;;;;;;;;;;;;;;;;;;5054699;28;19913;-31
2022/03/01 03:31:44;;;;;;;;;;;;;;;;;;5054977;28;20369;-31
2022/03/01 03:34:10;;;;;;;;;;;;;;;;;;5054427;28;20340;-31
2022/03/01 03:36:36;;;;;;;;;;;;;;;;;;5057607;28;19915;-30
2022/03/01 03:39:02;;;;;;;;;;;;;;;;;;5057091;28;19923;-30
2022/03/01 03:41:29;;;;;;;;;;;;;;;;;;5057037;28;19908;-30
2022/03/01 03:43:55;;;;;;;;;;;;;;;;;;5056852;28;19955;-29
2022/03/01 03:46:21;;;;;;;;;;;;;;;;;;5056909;28;19909;-30
2022/03/01 03:48:47;;;;;;;;;;;;;;;;;;5057824;28;19970;-31
2022/03/01 03:51:13;;;;;;;;;;;;;;;;;;5057796;28;19908;-32
2022/03/01 03:53:39;;;;;;;;;;;;;;;;;;5057758;28;19909;-31
2022/03/01 03:56:05;;;;;;;;;;;;;;;;;;5056807;28;20308;-31
2022/03/01 03:58:31;;;;;;;;;;;;;;;;;;5057702;28;19944;-32
2022/03/01 04:00:57;;;;;;;;;;;;;;;;;;5057722;28;20018;-31
2022/03/01 04:03:26;;;;;;;;;;;;;;;;;;5057354;28;19944;-32
2022/03/01 04:05:52;;;;;;;;;;;;;;;;;;5057536;28;19936;-31
2022/03/01 04:08:19;;;;;;;;;;;;;;;;;;5057507;28;19912;-31
2022/03/01 04:10:45;;;;;;;;;;;;;;;;;;5057993;28;19990;-32
2022/03/01 04:13:11;;;;;;;;;;;;;;;;;;5057376;28;19913;-32
2022/03/01 04:15:37;;;;;;;;;;;;;;;;;;5057324;28;20319;-32
2022/03/01 04:18:04;;;;;;;;;;;;;;;;;;5057615;28;19967;-31
2022/03/01 04:20:29;;;;;;;;;;;;;;;;;;5056302;28;19954;-31
2022/03/01 04:22:56;;;;;;;;;;;;;;;;;;5057082;28;19913;-31
2022/03/01 04:25:22;;;;;;;;;;;;;;;;;;5056277;28;20271;-31
2022/03/01 04:27:48;;;;;;;;;;;;;;;;;;5056250;28;19913;-32
2022/03/01 04:30:15;;;;;;;;;;;;;;;;;;5057626;28;20023;-32
2022/03/01 04:32:41;;;;;;;;;;;;;;;;;;5057056;28;19909;-32
2022/03/01 04:35:08;;;;;;;;;;;;;;;;;;5057466;28;20001;-32
2022/03/01 04:37:34;;;;;;;;;;;;;;;;;;5056934;28;19928;-31
2022/03/01 04:40:00;;;;;;;;;;;;;;;;;;5057480;28;19913;-32
2022/03/01 04:42:26;;;;;;;;;;;;;;;;;;5056741;28;20343;-32
2022/03/01 04:44:52;;;;;;;;;;;;;;;;;;5056868;28;19920;-31
2022/03/01 04:47:18;;;;;;;;;;;;;;;;;;5055325;28;19924;-31
2022/03/01 04:49:44;;;;;;;;;;;;;;;;;;5056640;28;19916;-32
2022/03/01 04:52:10;;;;;;;;;;;;;;;;;;5056543;28;19920;-32
2022/03/01 04:54:36;;;;;;;;;;;;;;;;;;5056870;28;19913;-32
2022/03/01 04:57:02;;;;;;;;;;;;;;;;;;5056898;28;19913;-32
2022/03/01 04:59:28;;;;;;;;;;;;;;;;;;5056494;28;19913;-31
2022/03/01 05:01:54;;;;;;;;;;;;;;;;;;5056208;28;19982;-31
2022/03/01 05:04:22;;;;;;;;;;;;;;;;;;5056103;28;20241;-30
2022/03/01 05:06:48;;;;;;;;;;;;;;;;;;5056526;28;20240;-31
2022/03/01 05:09:14;;;;;;;;;;;;;;;;;;5056389;28;20267;-30
2022/03/01 05:11:40;;;;;;;;;;;;;;;;;;5056657;28;19913;-30
2022/03/01 05:14:06;;;;;;;;;;;;;;;;;;5056130;28;20043;-33
2022/03/01 05:16:32;;;;;;;;;;;;;;;;;;5055974;28;20241;-31
2022/03/01 05:18:58;;;;;;;;;;;;;;;;;;5056175;28;20007;-30
2022/03/01 05:21:24;;;;;;;;;;;;;;;;;;5055972;28;19923;-31
2022/03/01 05:23:50;;;;;;;;;;;;;;;;;;5054703;28;19920;-31
2022/03/01 05:26:16;;;;;;;;;;;;;;;;;;5055782;28;19909;-31
2022/03/01 05:28:42;;;;;;;;;;;;;;;;;;5056073;28;19913;-31
2022/03/01 05:31:08;;;;;;;;;;;;;;;;;;5056120;28;19970;-31
2022/03/01 05:33:34;;;;;;;;;;;;;;;;;;5054687;28;19921;-30
2022/03/01 05:36:00;;;;;;;;;;;;;;;;;;5056032;28;19923;-30
2022/03/01 05:38:26;;;;;;;;;;;;;;;;;;5056091;28;19920;-30
2022/03/01 05:40:52;;;;;;;;;;;;;;;;;;5055910;28;19909;-31
2022/03/01 05:43:18;;;;;;;;;;;;;;;;;;5054513;28;19916;-31
2022/03/01 05:45:44;;;;;;;;;;;;;;;;;;5055716;28;20256;-30
2022/03/01 05:48:10;;;;;;;;;;;;;;;;;;5056073;28;19909;-30
2022/03/01 05:50:36;;;;;;;;;;;;;;;;;;5055462;28;20371;-31
2022/03/01 05:53:02;;;;;;;;;;;;;;;;;;5054384;28;20298;-31
2022/03/01 05:55:28;;;;;;;;;;;;;;;;;;5054232;28;19912;-31
2022/03/01 05:57:55;;;;;;;;;;;;;;;;;;5054221;28;19920;-30
2022/03/01 06:00:21;;;;;;;;;;;;;;;;;;5054769;28;19935;-30
2022/03/01 06:02:47;;;;;;;;;;;;;;;;;;5053805;28;20295;-30
2022/03/01 06:05:14;;;;;;;;;;;;;;;;;;5054063;28;19916;-30
2022/03/01 06:07:40;;;;;;;;;;;;;;;;;;5054969;28;19909;-31
2022/03/01 06:10:06;;;;;;;;;;;;;;;;;;5054949;28;19912;-31
2022/03/01 06:12:32;;;;;;;;;;;;;;;;;;5055047;28;20049;-31
2022/03/01 06:14:58;;;;;;;;;;;;;;;;;;5054853;28;19965;-31
2022/03/01 06:17:24;;;;;;;;;;;;;;;;;;5054910;28;19913;-31
2022/03/01 06:19:50;;;;;;;;;;;;;;;;;;5055223;28;19970;-31
2022/03/01 06:22:16;;;;;;;;;;;;;;;;;;5054911;28;19917;-32
2022/03/01 06:24:42;;;;;;;;;;;;;;;;;;5054787;28;20007;-31
2022/03/01 06:27:08;;;;;;;;;;;;;;;;;;5053776;28;19913;-31
2022/03/01 06:29:34;;;;;;;;;;;;;;;;;;5054696;28;19912;-31
2022/03/01 06:32:00;;;;;;;;;;;;;;;;;;5054536;28;19920;-31
2022/03/01 06:34:26;;;;;;;;;;;;;;;;;;5055152;28;20012;-32
2022/03/01 06:36:52;;;;;;;;;;;;;;;;;;5054430;28;19923;-31
2022/03/01 06:39:18;;;;;;;;;;;;;;;;;;5055113;28;19909;-32
2022/03/01 06:41:44;;;;;;;;;;;;;;;;;;5055009;28;19923;-32
2022/03/01 06:44:10;;;;;;;;;;;;;;;;;;5054515;28;19948;-32
2022/03/01 06:46:36;;;;;;;;;;;;;;;;;;5054440;28;19913;-31
2022/03/01 06:49:03;;;;;;;;;;;;;;;;;;5054475;28;19924;-31
2022/03/01 06:51:29;;;;;;;;;;;;;;;;;;5054471;28;20384;-31
2022/03/01 06:53:55;;;;;;;;;;;;;;;;;;5054909;28;19919;-31
2022/03/01 06:56:21;;;;;;;;;;;;;;;;;;5054422;28;19948;-31
2022/03/01 06:58:47;;;;;;;;;;;;;;;;;;5054416;28;20224;-31
2022/03/01 07:01:13;;;;;;;;;;;;;;;;;;5054578;28;19970;-32
2022/03/01 07:03:42;;;;;;;;;;;;;;;;;;5053937;28;20263;-31
2022/03/01 07:06:07;;;;;;;;;;;;;;;;;;5054523;28;20348;-30
2022/03/01 07:08:35;;;;;;;;;;;;;;;;;;5053246;28;19970;-30
2022/03/01 07:11:01;;;;;;;;;;;;;;;;;;5056641;28;20310;-31
2022/03/01 07:13:27;;;;;;;;;;;;;;;;;;5057034;28;20038;-30
2022/03/01 07:15:53;;;;;;;;;;;;;;;;;;5057955;28;19975;-31
2022/03/01 07:18:19;;;;;;;;;;;;;;;;;;5057961;28;19940;-30
2022/03/01 07:20:45;;;;;;;;;;;;;;;;;;5057972;28;19913;-33
2022/03/01 07:23:11;;;;;;;;;;;;;;;;;;5058235;28;20269;-30
2022/03/01 07:25:37;;;;;;;;;;;;;;;;;;5057745;28;19913;-31
2022/03/01 07:28:03;;;;;;;;;;;;;;;;;;5057941;28;19919;-31
2022/03/01 07:30:29;;;;;;;;;;;;;;;;;;5057733;28;20359;-33
2022/03/01 07:32:56;;;;;;;;;;;;;;;;;;5057567;28;19909;-31
2022/03/01 07:35:22;;;;;;;;;;;;;;;;;;5057768;28;20254;-30
2022/03/01 07:37:48;;;;;;;;;;;;;;;;;;5057632;28;19916;-31
2022/03/01 07:40:15;;;;;;;;;;;;;;;;;;5057447;28;19967;-31
2022/03/01 07:42:41;;;;;;;;;;;;;;;;;;5057427;28;19949;-31
2022/03/01 07:45:07;;;;;;;;;;;;;;;;;;5056414;28;19913;-30
2022/03/01 07:47:33;;;;;;;;;;;;;;;;;;5057315;28;19909;-30
2022/03/01 07:49:59;;;;;;;;;;;;;;;;;;5057852;28;19951;-31
2022/03/01 07:52:25;;;;;;;;;;;;;;;;;;5056163;28;19913;-31
2022/03/01 07:54:51;;;;;;;;;;;;;;;;;;5056441;28;19948;-31
2022/03/01 07:57:17;;;;;;;;;;;;;;;;;;5057332;28;19962;-30
2022/03/01 07:59:43;;;;;;;;;;;;;;;;;;5056242;28;19912;-30
2022/03/01 08:02:09;;;;;;;;;;;;;;;;;;5056876;28;19916;-30
2022/03/01 08:04:35;;;;;;;;;;;;;;;;;;5057143;28;19909;-30
2022/03/01 08:07:01;;;;;;;;;;;;;;;;;;5057025;28;19916;-31
2022/03/01 08:09:27;;;;;;;;;;;;;;;;;;5056063;28;19995;-32
2022/03/01 08:11:53;;;;;;;;;;;;;;;;;;5056908;28;20008;-31
2022/03/01 08:14:19;;;;;;;;;;;;;;;;;;5057093;28;20322;-30
2022/03/01 08:16:45;;;;;;;;;;;;;;;;;;5057623;28;19956;-32
2022/03/01 08:19:11;;;;;;;;;;;;;;;;;;5057217;28;19912;-31
2022/03/01 08:21:37;;;;;;;;;;;;;;;;;;5056584;28;19920;-31
2022/03/01 08:24:03;;;;;;;;;;;;;;;;;;5055424;28;20271;-30
2022/03/01 08:26:29;;;;;;;;;;;;;;;;;;5056003;28;19974;-30
2022/03/01 08:28:55;;;;;;;;;;;;;;;;;;5056787;28;19920;-30
2022/03/01 08:31:21;;;;;;;;;;;;;;;;;;5056790;28;20045;-31
2022/03/01 08:33:47;;;;;;;;;;;;;;;;;;5056668;28;20392;-30
2022/03/01 08:36:12;;;;;;;;;;;;;;;;;;5056908;28;19924;-31
2022/03/01 08:38:39;;;;;;;;;;;;;;;;;;5056919;28;19955;-31
2022/03/01 08:41:05;;;;;;;;;;;;;;;;;;5057165;28;19913;-31
2022/03/01 08:43:31;;;;;;;;;;;;;;;;;;5056511;28;20017;-31
2022/03/01 08:45:57;;;;;;;;;;;;;;;;;;5055579;28;19916;-31
2022/03/01 08:48:24;;;;;;;;;;;;;;;;;;5056567;28;20030;-31
2022/03/01 08:50:50;;;;;;;;;;;;;;;;;;5056517;28;19919;-31
2022/03/01 08:53:16;;;;;;;;;;;;;;;;;;5056683;28;19949;-32
2022/03/01 08:55:42;;;;;;;;;;;;;;;;;;5055392;28;19913;-31
2022/03/01 08:58:08;;;;;;;;;;;;;;;;;;5055710;28;20324;-31
2022/03/01 09:00:35;;;;;;;;;;;;;;;;;;5056369;28;19913;-31
2022/03/01 09:03:01;;;;;;;;;;;;;;;;;;5055926;28;19932;-31
2022/03/01 09:05:28;;;;;;;;;;;;;;;;;;5056277;28;19912;-30
2022/03/01 09:07:54;;;;;;;;;;;;;;;;;;5055305;28;19917;-37
2022/03/01 09:10:22;;;;;;;;;;;;;;;;;;5056433;28;19999;-30
2022/03/01 09:12:48;;;;;;;;;;;;;;;;;;5056120;28;19995;-32
2022/03/01 09:15:14;;;;;;;;;;;;;;;;;;5055914;28;19916;-31
2022/03/01 09:17:40;;;;;;;;;;;;;;;;;;5054827;28;19920;-29
2022/03/01 09:20:06;;;;;;;;;;;;;;;;;;5055695;28;20190;-31
2022/03/01 09:22:32;;;;;;;;;;;;;;;;;;5054484;28;19943;-32
2022/03/01 09:24:58;;;;;;;;;;;;;;;;;;5055565;28;19912;-31
2022/03/01 09:27:24;;;;;;;;;;;;;;;;;;5056174;28;20066;-31
2022/03/01 09:29:50;;;;;;;;;;;;;;;;;;5055487;28;19963;-31
2022/03/01 09:32:17;;;;;;;;;;;;;;;;;;5055349;28;20006;-31
2022/03/01 09:34:44;;;;;;;;;;;;;;;;;;5055496;28;19919;-31
2022/03/01 09:37:10;;;;;;;;;;;;;;;;;;5054556;28;19962;-32
2022/03/01 09:39:36;;;;;;;;;;;;;;;;;;5055990;28;19923;-31
2022/03/01 09:42:02;;;;;;;;;;;;;;;;;;5055336;28;20315;-31
2022/03/01 09:44:28;;;;;;;;;;;;;;;;;;5055697;28;19940;-31
2022/03/01 09:46:54;;;;;;;;;;;;;;;;;;5055736;28;20263;-31
2022/03/01 09:49:20;;;;;;;;;;;;;;;;;;5055695;28;19952;-31
2022/03/01 09:51:46;;;;;;;;;;;;;;;;;;5055297;28;19920;-32
2022/03/01 09:54:12;;;;;;;;;;;;;;;;;;5054357;28;19917;-30
2022/03/01 09:56:38;;;;;;;;;;;;;;;;;;5055342;28;19913;-32
2022/03/01 09:59:04;;;;;;;;;;;;;;;;;;5055299;28;19963;-31
2022/03/01 10:01:30;;;;;;;;;;;;;;;;;;5054395;28;20354;-31
2022/03/01 10:03:56;;;;;;;;;;;;;;;;;;5054953;28;19920;-30
2022/03/01 10:06:22;;;;;;;;;;;;;;;;;;5055808;28;19913;-30
2022/03/01 10:08:49;;;;;;;;;;;;;;;;;;5055624;28;19997;-30
2022/03/01 10:11:18;;;;;;;;;;;;;;;;;;5055299;28;19909;-31
2022/03/01 10:13:44;;;;;;;;;;;;;;;;;;5055392;28;19913;-30
2022/03/01 10:16:10;;;;;;;;;;;;;;;;;;5054070;28;20317;-30
2022/03/01 10:18:36;;;;;;;;;;;;;;;;;;5054158;28;19970;-31
2022/03/01 10:21:02;;;;;;;;;;;;;;;;;;5055647;28;19931;-30
2022/03/01 10:23:28;;;;;;;;;;;;;;;;;;5054929;28;20011;-30
2022/03/01 10:25:54;;;;;;;;;;;;;;;;;;5054060;28;19916;-31
2022/03/01 10:28:20;;;;;;;;;;;;;;;;;;5053997;28;19981;-32
2022/03/01 10:30:46;;;;;;;;;;;;;;;;;;5055352;28;19920;-30
2022/03/01 10:33:12;;;;;;;;;;;;;;;;;;5054903;28;20213;-32
2022/03/01 10:35:38;;;;;;;;;;;;;;;;;;5054780;28;19912;-31
2022/03/01 10:38:04;;;;;;;;;;;;;;;;;;5054848;28;19966;-31
2022/03/01 10:40:30;;;;;;;;;;;;;;;;;;5054794;28;19959;-31
2022/03/01 10:42:56;;;;;;;;;;;;;;;;;;5053674;28;19916;-31
2022/03/01 10:45:22;;;;;;;;;;;;;;;;;;5055885;28;19958;-31
2022/03/01 10:47:48;;;;;;;;;;;;;;;;;;5058994;28;19913;-30
2022/03/01 10:50:14;;;;;;;;;;;;;;;;;;5058937;28;19936;-30
2022/03/01 10:52:40;;;;;;;;;;;;;;;;;;5057919;28;19916;-31
2022/03/01 10:55:06;;;;;;;;;;;;;;;;;;5059080;28;20319;-30
2022/03/01 10:57:32;;;;;;;;;;;;;;;;;;5059027;28;19991;-31
2022/03/01 10:59:59;;;;;;;;;;;;;;;;;;5059050;28;20008;-31
2022/03/01 11:02:25;;;;;;;;;;;;;;;;;;5057422;28;19929;-32
2022/03/01 11:04:51;;;;;;;;;;;;;;;;;;5059237;28;19912;-31
2022/03/01 11:07:17;;;;;;;;;;;;;;;;;;5059050;28;19909;-30
2022/03/01 11:09:43;;;;;;;;;;;;;;;;;;5058549;28;19935;-31
2022/03/01 11:12:09;;;;;;;;;;;;;;;;;;5058378;28;19936;-30
2022/03/01 11:14:35;;;;;;;;;;;;;;;;;;5058619;28;19970;-31
2022/03/01 11:17:01;;;;;;;;;;;;;;;;;;5058363;28;19908;-31
2022/03/01 11:19:27;;;;;;;;;;;;;;;;;;5058384;28;19964;-32
2022/03/01 11:21:53;;;;;;;;;;;;;;;;;;5058210;28;19924;-31
2022/03/01 11:24:19;;;;;;;;;;;;;;;;;;5058166;28;19917;-31
2022/03/01 11:26:46;;;;;;;;;;;;;;;;;;5058188;28;19909;-31
2022/03/01 11:29:13;;;;;;;;;;;;;;;;;;5058404;28;19924;-31
2022/03/01 11:31:39;;;;;;;;;;;;;;;;;;5057118;28;19908;-30
2022/03/01 11:34:05;;;;;;;;;;;;;;;;;;5056941;28;19913;-31
2022/03/01 11:36:31;;;;;;;;;;;;;;;;;;5057978;28;19951;-30
2022/03/01 11:38:57;;;;;;;;;;;;;;;;;;5057122;28;19909;-32
2022/03/01 11:41:23;;;;;;;;;;;;;;;;;;5057865;28;19913;-31
2022/03/01 11:43:49;;;;;;;;;;;;;;;;;;5058204;28;19913;-31
2022/03/01 11:46:15;;;;;;;;;;;;;;;;;;5057871;28;19924;-31
2022/03/01 11:48:41;;;;;;;;;;;;;;;;;;5057724;28;19909;-30
2022/03/01 11:51:07;;;;;;;;;;;;;;;;;;5057813;28;19920;-30
2022/03/01 11:53:33;;;;;;;;;;;;;;;;;;5056673;28;19908;-30
2022/03/01 11:55:59;;;;;;;;;;;;;;;;;;5056592;28;19912;-29
2022/03/01 11:58:25;;;;;;;;;;;;;;;;;;5056369;28;19917;-30
2022/03/01 12:00:51;;;;;;;;;;;;;;;;;;5057490;28;19912;-30
2022/03/01 12:03:17;;;;;;;;;;;;;;;;;;5057357;28;19978;-31
2022/03/01 12:05:46;;;;;;;;;;;;;;;;;;5057995;28;19912;-30
2022/03/01 12:08:12;;;;;;;;;;;;;;;;;;5057370;28;19924;-30
2022/03/01 12:10:38;;;;;;;;;;;;;;;;;;5057272;28;19956;-31
2022/03/01 12:13:04;;;;;;;;;;;;;;;;;;5057138;28;19924;-30
2022/03/01 12:15:30;;;;;;;;;;;;;;;;;;5057163;28;19913;-30
2022/03/01 12:17:57;;;;;;;;;;;;;;;;;;5057154;28;20004;-30
2022/03/01 12:20:23;;;;;;;;;;;;;;;;;;5057122;28;19928;-31
2022/03/01 12:22:49;;;;;;;;;;;;;;;;;;5057011;28;19913;-31
2022/03/01 12:25:16;;;;;;;;;;;;;;;;;;5057662;28;19924;-31
2022/03/01 12:27:42;;;;;;;;;;;;;;;;;;5057541;28;19912;-31
2022/03/01 12:30:08;;;;;;;;;;;;;;;;;;5057066;28;20010;-31
2022/03/01 12:32:34;;;;;;;;;;;;;;;;;;5057012;28;19917;-30
2022/03/01 12:35:00;;;;;;;;;;;;;;;;;;5055753;28;19981;-32
2022/03/01 12:37:26;;;;;;;;;;;;;;;;;;5056736;28;20016;-30
2022/03/01 12:39:52;;;;;;;;;;;;;;;;;;5057349;28;19938;-41
2022/03/01 12:42:21;;;;;;;;;;;;;;;;;;5056632;28;20263;-31
2022/03/01 12:44:47;;;;;;;;;;;;;;;;;;5057356;28;20290;-31
2022/03/01 12:47:13;;;;;;;;;;;;;;;;;;5056599;28;19921;-31
2022/03/01 12:49:39;;;;;;;;;;;;;;;;;;5057120;28;19916;-31
2022/03/01 12:52:05;;;;;;;;;;;;;;;;;;5056789;28;19917;-32
2022/03/01 12:54:32;;;;;;;;;;;;;;;;;;5056533;28;20028;-31
2022/03/01 12:56:58;;;;;;;;;;;;;;;;;;5056877;28;20352;-32
2022/03/01 12:59:24;;;;;;;;;;;;;;;;;;5056407;28;19921;-32
2022/03/01 13:01:50;;;;;;;;;;;;;;;;;;5056603;28;19913;-31
2022/03/01 13:04:17;;;;;;;;;;;;;;;;;;5056126;28;20271;-31
2022/03/01 13:06:43;;;;;;;;;;;;;;;;;;5056220;28;19913;-31
2022/03/01 13:09:09;;;;;;;;;;;;;;;;;;5055788;28;19995;-31
2022/03/01 13:11:35;;;;;;;;;;;;;;;;;;5056177;28;20351;-31
2022/03/01 13:14:01;;;;;;;;;;;;;;;;;;5055935;28;19913;-32
2022/03/01 13:16:28;;;;;;;;;;;;;;;;;;5056097;28;19970;-31
2022/03/01 13:18:54;;;;;;;;;;;;;;;;;;5056078;28;19913;-31
2022/03/01 13:21:20;;;;;;;;;;;;;;;;;;5056287;28;19913;-30
2022/03/01 13:23:46;;;;;;;;;;;;;;;;;;5055797;28;19979;-31
2022/03/01 13:26:12;;;;;;;;;;;;;;;;;;5055897;28;19951;-31
2022/03/01 13:28:38;;;;;;;;;;;;;;;;;;5056350;28;20312;-31
2022/03/01 13:31:04;;;;;;;;;;;;;;;;;;5055779;28;20003;-31
2022/03/01 13:33:30;;;;;;;;;;;;;;;;;;5055786;28;20340;-31
2022/03/01 13:35:56;;;;;;;;;;;;;;;;;;5055742;28;20260;-31
2022/03/01 13:38:22;;;;;;;;;;;;;;;;;;5055937;28;19913;-31
2022/03/01 13:40:48;;;;;;;;;;;;;;;;;;5055719;28;19909;-31
2022/03/01 13:43:14;;;;;;;;;;;;;;;;;;5055486;28;20370;-31
2022/03/01 13:45:40;;;;;;;;;;;;;;;;;;5055789;28;19913;-30
2022/03/01 13:48:06;;;;;;;;;;;;;;;;;;5055640;28;19913;-31
2022/03/01 13:50:32;;;;;;;;;;;;;;;;;;5054329;28;20216;-31
2022/03/01 13:53:01;;;;;;;;;;;;;;;;;;5055072;28;19919;-31
2022/03/01 13:55:27;;;;;;;;;;;;;;;;;;5055080;28;19919;-29
2022/03/01 13:57:53;;;;;;;;;;;;;;;;;;5054170;28;19913;-31
2022/03/01 14:00:19;;;;;;;;;;;;;;;;;;5055411;28;19916;-31
2022/03/01 14:02:45;;;;;;;;;;;;;;;;;;5054954;28;19947;-30
2022/03/01 14:05:11;;;;;;;;;;;;;;;;;;5055011;28;20355;-31
2022/03/01 14:07:37;;;;;;;;;;;;;;;;;;5055054;28;19970;-31
2022/03/01 14:10:03;;;;;;;;;;;;;;;;;;5054764;28;19917;-32
2022/03/01 14:12:29;;;;;;;;;;;;;;;;;;5053749;28;20297;-32
2022/03/01 14:14:56;;;;;;;;;;;;;;;;;;5054868;28;19913;-32
2022/03/01 14:17:23;;;;;;;;;;;;;;;;;;5054958;28;19912;-31
2022/03/01 14:19:51;;;;;;;;;;;;;;;;;;5053361;28;20218;-31
2022/03/01 14:22:17;;;;;;;;;;;;;;;;;;5054705;28;19951;-31
2022/03/01 14:24:43;;;;;;;;;;;;;;;;;;5054729;28;19917;-32
2022/03/01 14:27:09;;;;;;;;;;;;;;;;;;5055233;28;20290;-32
2022/03/01 14:29:35;;;;;;;;;;;;;;;;;;5053738;28;19945;-31
2022/03/01 14:32:01;;;;;;;;;;;;;;;;;;5053611;28;20366;-32
2022/03/01 14:34:27;;;;;;;;;;;;;;;;;;5053726;28;19920;-33
2022/03/01 14:36:53;;;;;;;;;;;;;;;;;;5054616;28;19920;-32
2022/03/01 14:39:19;;;;;;;;;;;;;;;;;;5054419;28;19912;-32
2022/03/01 14:41:45;;;;;;;;;;;;;;;;;;5055002;28;19909;-32
2022/03/01 14:44:12;;;;;;;;;;;;;;;;;;5053243;28;19976;-30
2022/03/01 14:46:38;;;;;;;;;;;;;;;;;;5053437;28;19919;-30
2022/03/01 14:49:04;;;;;;;;;;;;;;;;;;5054538;28;19924;-31
2022/03/01 14:51:30;;;;;;;;;;;;;;;;;;5054420;28;20310;-31
2022/03/01 14:53:56;;;;;;;;;;;;;;;;;;5054301;28;19943;-31
2022/03/01 14:56:22;;;;;;;;;;;;;;;;;;5054362;28;19909;-30
2022/03/01 14:58:48;;;;;;;;;;;;;;;;;;5054390;28;20250;-31
2022/03/01 15:01:14;;;;;;;;;;;;;;;;;;5054943;28;19943;-31
2022/03/01 15:03:40;;;;;;;;;;;;;;;;;;5053957;28;20311;-31
2022/03/01 15:06:06;;;;;;;;;;;;;;;;;;5054614;28;19913;-31
2022/03/01 15:08:32;;;;;;;;;;;;;;;;;;5054503;28;20266;-31
2022/03/01 15:10:58;;;;;;;;;;;;;;;;;;5053329;28;19916;-31
2022/03/01 15:13:25;;;;;;;;;;;;;;;;;;5053384;28;19921;-33
2022/03/01 15:15:51;;;;;;;;;;;;;;;;;;5053217;28;19913;-31
2022/03/01 15:18:18;;;;;;;;;;;;;;;;;;5054503;28;20237;-30
2022/03/01 15:20:44;;;;;;;;;;;;;;;;;;5054522;28;19916;-31
2022/03/01 15:23:10;;;;;;;;;;;;;;;;;;5054013;28;20355;-31
2022/03/01 15:25:36;;;;;;;;;;;;;;;;;;5054252;28;20007;-30
2022/03/01 15:28:03;;;;;;;;;;;;;;;;;;5054158;28;19920;-31
2022/03/01 15:30:29;;;;;;;;;;;;;;;;;;5054134;28;19917;-31
2022/03/01 15:32:55;;;;;;;;;;;;;;;;;;5057386;28;20066;-31
2022/03/01 15:35:21;;;;;;;;;;;;;;;;;;5058062;28;19913;-31
2022/03/01 15:37:47;;;;;;;;;;;;;;;;;;5058093;28;20007;-30
2022/03/01 15:40:13;;;;;;;;;;;;;;;;;;5056909;28;19917;-31
2022/03/01 15:42:39;;;;;;;;;;;;;;;;;;5057770;28;19927;-31
2022/03/01 15:45:07;;;;;;;;;;;;;;;;;;5057776;28;19995;-31
2022/03/01 15:47:33;;;;;;;;;;;;;;;;;;5057655;28;19913;-31
2022/03/01 15:49:59;;;;;;;;;;;;;;;;;;5058164;28;20039;-30
2022/03/01 15:52:26;;;;;;;;;;;;;;;;;;5057816;28;19917;-31
2022/03/01 15:54:52;;;;;;;;;;;;;;;;;;5057565;28;19924;-31
2022/03/01 15:57:20;;;;;;;;;;;;;;;;;;5058082;28;20393;-30
2022/03/01 15:59:46;;;;;;;;;;;;;;;;;;5056630;28;20397;-31
2022/03/01 16:02:12;;;;;;;;;;;;;;;;;;5056148;28;20007;-30
2022/03/01 16:04:38;;;;;;;;;;;;;;;;;;5057387;28;19921;-31
2022/03/01 16:07:04;;;;;;;;;;;;;;;;;;5056287;28;19917;-30
2022/03/01 16:09:30;;;;;;;;;;;;;;;;;;5057828;28;19959;-30
2022/03/01 16:11:56;;;;;;;;;;;;;;;;;;5057181;28;20294;-30
2022/03/01 16:14:23;;;;;;;;;;;;;;;;;;5057665;28;19917;-31
2022/03/01 16:16:49;;;;;;;;;;;;;;;;;;5057167;28;19952;-31
2022/03/01 16:19:16;;;;;;;;;;;;;;;;;;5057117;28;19912;-32
2022/03/01 16:21:42;;;;;;;;;;;;;;;;;;5057159;28;19939;-30
2022/03/01 16:24:08;;;;;;;;;;;;;;;;;;5056801;28;19913;-31
2022/03/01 16:26:34;;;;;;;;;;;;;;;;;;5056967;28;19917;-31
2022/03/01 16:29:00;;;;;;;;;;;;;;;;;;5056846;28;19924;-32
2022/03/01 16:31:27;;;;;;;;;;;;;;;;;;5056817;28;19952;-32
2022/03/01 16:33:53;;;;;;;;;;;;;;;;;;5056884;28;19956;-32
2022/03/01 16:36:19;;;;;;;;;;;;;;;;;;5056865;28;19959;-32
2022/03/01 16:38:45;;;;;;;;;;;;;;;;;;5056752;28;19916;-30